createdAt,value
2023-02-17T00:01:38.346Z,2.63
2023-02-17T00:04:06.232Z,2.38
2023-02-17T00:06:40.542Z,3.50
2023-02-17T00:09:10.515Z,3.75
2023-02-17T00:11:38.429Z,3.42
2023-02-17T00:14:09.254Z,2.50
2023-02-17T00:16:38.775Z,2.85
2023-02-17T00:19:25.503Z,2.33
2023-02-17T00:21:55.667Z,2.28
2023-02-17T00:24:25.143Z,3.85
2023-02-17T00:26:52.730Z,4.05
2023-02-17T00:29:20.810Z,5.03
2023-02-17T00:31:49.157Z,3.35
2023-02-17T00:34:18.132Z,5.95
2023-02-17T00:36:46.174Z,5.70
2023-02-17T00:39:15.249Z,5.72
2023-02-17T00:41:43.235Z,5.47
2023-02-17T00:44:21.556Z,5.55
2023-02-17T00:46:49.771Z,6.05
2023-02-17T00:49:21.914Z,5.53
2023-02-17T00:51:51.443Z,6.22
2023-02-17T00:54:19.653Z,5.20
2023-02-17T00:57:01.269Z,5.45
2023-02-17T00:59:30.396Z,6.13
2023-02-17T01:01:58.347Z,4.07
2023-02-17T01:04:27.968Z,5.10
2023-02-17T01:06:56.201Z,4.68
2023-02-17T01:09:24.610Z,5.80
2023-02-17T01:11:52.469Z,4.78
2023-02-17T01:14:20.686Z,4.32
2023-02-17T01:16:50.244Z,5.35
2023-02-17T01:19:19.335Z,4.10
2023-02-17T01:21:47.392Z,4.38
2023-02-17T01:24:18.511Z,3.50
2023-02-17T01:26:46.344Z,4.43
2023-02-17T01:29:14.647Z,4.47
2023-02-17T01:31:42.765Z,3.30
2023-02-17T01:34:11.720Z,3.33
2023-02-17T01:36:44.836Z,4.75
2023-02-17T01:39:19.303Z,5.50
2023-02-17T01:41:47.363Z,4.80
2023-02-17T01:44:19.126Z,3.72
2023-02-17T01:46:48.764Z,4.45
2023-02-17T01:49:36.976Z,4.38
2023-02-17T01:52:04.754Z,4.30
2023-02-17T01:54:40.248Z,4.25
2023-02-17T01:57:09.775Z,4.60
2023-02-17T01:59:38.769Z,3.08
2023-02-17T02:02:07.414Z,4.47
2023-02-17T02:04:39.489Z,3.22
2023-02-17T02:07:16.461Z,3.15
2023-02-17T02:09:52.954Z,3.42
2023-02-17T02:12:28.408Z,3.30
2023-02-17T02:15:05.562Z,2.38
2023-02-17T02:17:43.081Z,2.17
2023-02-17T02:23:19.178Z,1.70
2023-02-17T02:25:50.368Z,2.53
2023-02-17T02:28:30.563Z,1.83
2023-02-17T02:31:20.819Z,1.63
2023-02-17T02:33:57.043Z,1.55
2023-02-17T02:36:38.017Z,1.67
2023-02-17T02:39:13.612Z,1.55
2023-02-17T02:42:04.646Z,1.25
2023-02-17T02:44:35.907Z,1.00
2023-02-17T02:47:09.265Z,1.10
2023-02-17T02:52:15.952Z,1.30
2023-02-17T02:55:04.854Z,1.20
2023-02-17T02:57:48.941Z,0.93
2023-02-17T03:00:35.429Z,1.13
2023-02-17T03:03:09.860Z,1.50
2023-02-17T03:05:38.633Z,1.27
2023-02-17T03:08:14.235Z,1.35
2023-02-17T03:10:55.794Z,0.70
2023-02-17T03:13:25.091Z,0.77
2023-02-17T03:15:53.243Z,0.82
2023-02-17T03:18:24.927Z,1.00
2023-02-17T03:20:58.265Z,0.88
2023-02-17T03:23:29.328Z,0.88
2023-02-17T03:25:57.436Z,0.82
2023-02-17T03:28:25.474Z,1.15
2023-02-17T03:30:53.359Z,0.50
2023-02-17T03:33:21.151Z,0.70
2023-02-17T03:35:49.323Z,0.90
2023-02-17T03:38:17.088Z,0.68
2023-02-17T03:40:46.930Z,1.00
2023-02-17T03:43:15.544Z,1.33
2023-02-17T03:45:44.871Z,0.75
2023-02-17T03:48:19.142Z,0.70
2023-02-17T03:50:49.386Z,1.00
2023-02-17T03:53:17.217Z,0.63
2023-02-17T03:55:46.444Z,0.85
2023-02-17T03:58:17.263Z,1.30
2023-02-17T04:00:45.776Z,0.70
2023-02-17T04:03:14.944Z,1.42
2023-02-17T04:05:45.392Z,2.15
2023-02-17T04:08:14.878Z,0.98
2023-02-17T04:10:47.184Z,1.10
2023-02-17T04:13:15.292Z,1.95
2023-02-17T04:15:44.349Z,0.70
2023-02-17T04:18:16.008Z,0.70
2023-02-17T04:20:53.565Z,0.93
2023-02-17T04:23:24.622Z,0.65
2023-02-17T04:33:53.876Z,0.60
2023-02-17T04:36:26.570Z,0.88
2023-02-17T04:39:06.359Z,0.60
2023-02-17T04:41:35.517Z,0.65
2023-02-17T04:44:03.903Z,0.65
2023-02-17T04:46:34.518Z,0.85
2023-02-17T04:49:04.057Z,1.00
2023-02-17T04:51:32.840Z,0.63
2023-02-17T04:54:02.951Z,0.60
2023-02-17T04:56:32.825Z,0.70
2023-02-17T05:04:34.389Z,0.85
2023-02-17T05:07:09.895Z,0.60
2023-02-17T05:09:46.905Z,0.77
2023-02-17T05:12:17.820Z,1.25
2023-02-17T05:14:59.757Z,1.27
2023-02-17T05:17:27.746Z,2.42
2023-02-17T05:22:33.723Z,2.50
2023-02-17T05:25:04.699Z,1.98
2023-02-17T05:27:33.570Z,1.02
2023-02-17T05:30:01.462Z,0.98
2023-02-17T05:32:29.586Z,0.80
2023-02-17T05:35:12.171Z,0.70
2023-02-17T05:37:39.943Z,0.57
2023-02-17T05:40:11.133Z,0.40
2023-02-17T05:42:39.150Z,0.50
2023-02-17T05:45:10.442Z,0.50
2023-02-17T05:47:42.064Z,0.50
2023-02-17T05:50:13.209Z,0.77
2023-02-17T05:52:41.277Z,0.50
2023-02-17T05:55:14.896Z,0.65
2023-02-17T05:57:43.644Z,0.52
2023-02-17T06:00:18.832Z,0.63
2023-02-17T06:02:48.773Z,2.38
2023-02-17T06:05:17.581Z,0.50
2023-02-17T06:07:46.770Z,0.50
2023-02-17T06:10:16.149Z,0.60
2023-02-17T06:12:45.141Z,0.50
2023-02-17T06:15:14.307Z,0.60
2023-02-17T06:17:43.308Z,0.30
2023-02-17T06:20:14.786Z,0.63
2023-02-17T06:22:45.290Z,0.40
2023-02-17T06:27:59.495Z,0.73
2023-02-17T06:30:29.060Z,0.70
2023-02-17T06:33:02.807Z,0.68
2023-02-17T06:35:35.997Z,0.50
2023-02-17T06:38:08.252Z,0.40
2023-02-17T06:40:47.099Z,0.40
2023-02-17T06:43:19.361Z,0.50
2023-02-17T06:45:47.691Z,0.85
2023-02-17T06:48:18.264Z,0.85
2023-02-17T06:50:47.048Z,0.50
2023-02-17T06:53:18.399Z,0.30
2023-02-17T06:55:47.394Z,0.40
2023-02-17T06:58:19.135Z,0.60
2023-02-17T07:00:47.400Z,0.47
2023-02-17T07:03:19.490Z,0.45
2023-02-17T07:05:49.402Z,0.50
2023-02-17T07:08:19.381Z,0.50
2023-02-17T07:10:47.233Z,1.42
2023-02-17T07:13:16.515Z,0.50
2023-02-17T07:15:45.731Z,0.50
2023-02-17T07:18:15.169Z,0.50
2023-02-17T07:20:43.229Z,0.50
2023-02-17T07:28:39.777Z,0.47
2023-02-17T07:33:51.141Z,0.85
2023-02-17T07:39:02.876Z,0.90
2023-02-17T07:41:35.462Z,0.60
2023-02-17T07:44:05.702Z,0.80
2023-02-17T07:46:39.021Z,1.08
2023-02-17T07:49:10.246Z,0.75
2023-02-17T07:51:43.287Z,1.02
2023-02-17T07:54:13.605Z,0.43
2023-02-17T07:56:47.250Z,0.77
2023-02-17T07:59:17.167Z,0.88
2023-02-17T08:01:49.222Z,1.02
2023-02-17T08:04:19.232Z,1.00
2023-02-17T08:06:51.710Z,0.73
2023-02-17T09:29:50.749Z,1.05
2023-02-17T09:32:23.169Z,2.05
2023-02-17T09:40:29.928Z,0.85
2023-02-17T09:43:12.464Z,0.65
2023-02-17T09:48:36.497Z,2.50
2023-02-17T10:53:36.546Z,1.20
2023-02-17T10:56:21.877Z,0.60
2023-02-17T11:15:05.599Z,1.63
2023-02-17T11:17:38.495Z,0.70
2023-02-17T11:20:28.443Z,0.60
2023-02-17T11:23:05.434Z,0.50
2023-02-17T11:25:35.310Z,0.40
2023-02-17T11:28:05.250Z,0.60
2023-02-17T11:30:38.539Z,0.52
2023-02-17T11:35:39.411Z,0.75
2023-02-17T11:38:15.208Z,0.80
2023-02-17T11:40:44.620Z,0.50
2023-02-17T11:43:21.641Z,0.55
2023-02-17T11:46:00.993Z,0.77
2023-02-17T11:48:29.051Z,0.40
2023-02-17T11:51:15.453Z,0.90
2023-02-17T11:53:52.310Z,0.50
2023-02-17T11:56:22.383Z,0.50
2023-02-17T11:59:10.071Z,0.60
2023-02-17T12:02:01.475Z,0.70
2023-02-17T12:04:58.333Z,0.40
2023-02-17T12:07:35.120Z,0.52
2023-02-17T12:10:24.748Z,0.50
2023-02-17T12:13:11.107Z,0.90
2023-02-17T12:15:49.095Z,0.40
2023-02-17T12:18:24.049Z,0.65
2023-02-17T12:20:57.266Z,0.93
2023-02-17T12:23:43.797Z,1.05
2023-02-17T12:26:33.348Z,0.70
2023-02-17T12:29:13.515Z,0.57
2023-02-17T12:31:50.142Z,0.50
2023-02-17T12:34:30.616Z,0.57
2023-02-17T12:37:00.152Z,0.50
2023-02-17T12:39:48.056Z,0.40
2023-02-17T12:42:20.387Z,0.65
2023-02-17T12:44:54.742Z,0.60
2023-02-17T12:47:32.192Z,0.77
2023-02-17T12:50:26.114Z,1.65
2023-02-17T12:55:32.009Z,0.40
2023-02-17T12:58:05.718Z,0.65
2023-02-17T13:03:03.715Z,0.52
2023-02-17T13:05:35.465Z,0.68
2023-02-17T13:08:21.580Z,0.40
2023-02-17T13:11:00.917Z,0.50
2023-02-17T13:13:31.739Z,0.65
2023-02-17T13:16:20.764Z,0.60
2023-02-17T13:18:50.798Z,0.77
2023-02-17T13:21:24.598Z,1.23
2023-02-17T13:24:18.510Z,0.50
2023-02-17T13:29:35.077Z,0.73
2023-02-17T13:32:04.156Z,0.40
2023-02-17T13:34:39.271Z,0.50
2023-02-17T13:37:29.281Z,0.65
2023-02-17T13:39:56.886Z,0.85
2023-02-17T13:42:35.716Z,0.80
2023-02-17T13:45:12.190Z,0.88
2023-02-17T13:47:41.833Z,0.75
2023-02-17T13:50:26.698Z,0.40
2023-02-17T13:52:54.910Z,0.70
2023-02-17T13:55:27.521Z,1.13
2023-02-17T13:57:56.828Z,0.50
2023-02-17T14:00:29.153Z,0.60
2023-02-17T14:02:57.047Z,0.60
2023-02-17T14:05:24.781Z,0.52
2023-02-17T14:07:55.620Z,0.93
2023-02-17T14:10:26.414Z,0.40
2023-02-17T14:12:55.311Z,0.65
2023-02-17T14:15:25.498Z,1.00
2023-02-17T14:17:54.770Z,0.52
2023-02-17T14:20:30.262Z,0.95
2023-02-17T14:23:19.791Z,0.52
2023-02-17T14:25:48.586Z,0.50
2023-02-17T14:28:24.463Z,0.40
2023-02-17T14:30:54.336Z,0.60
2023-02-17T14:33:25.599Z,0.70
2023-02-17T14:36:09.184Z,0.70
2023-02-17T14:38:44.599Z,1.20
2023-02-17T14:41:15.766Z,0.65
2023-02-17T15:46:37.173Z,0.68
2023-02-17T15:49:05.360Z,1.55
2023-02-17T15:54:15.308Z,1.42
2023-02-17T16:22:05.147Z,0.70
2023-02-17T16:24:32.569Z,0.70
2023-02-17T16:27:02.642Z,0.77
2023-02-17T16:38:02.595Z,0.75
2023-02-17T16:40:33.353Z,0.50
2023-02-17T16:43:02.168Z,0.88
2023-02-17T16:53:35.009Z,0.60
2023-02-17T17:04:42.816Z,1.55
2023-02-17T17:07:14.463Z,1.02
2023-02-17T17:23:07.213Z,1.52
2023-02-17T17:25:43.766Z,1.23
2023-02-17T17:28:15.521Z,1.00
2023-02-17T17:49:33.146Z,0.85
2023-02-17T17:57:31.705Z,0.50
2023-02-17T18:00:00.831Z,0.70
2023-02-17T18:02:29.086Z,0.40
2023-02-17T18:04:56.985Z,0.68
2023-02-17T18:07:24.586Z,0.80
2023-02-17T18:09:52.121Z,0.70
2023-02-17T18:12:21.484Z,0.82
2023-02-17T18:14:52.718Z,0.82
2023-02-17T18:17:21.382Z,0.50
2023-02-17T18:19:49.633Z,1.65
2023-02-17T18:22:17.492Z,0.88
2023-02-17T18:24:48.259Z,1.13
2023-02-17T18:27:16.379Z,0.70
2023-02-17T18:29:45.366Z,0.80
2023-02-17T18:32:13.102Z,0.88
2023-02-17T18:34:40.691Z,0.80
2023-02-17T18:37:08.252Z,1.05
2023-02-17T18:39:35.877Z,0.50
2023-02-17T18:42:04.036Z,0.40
2023-02-17T18:44:33.148Z,0.50
2023-02-17T18:47:01.002Z,0.40
2023-02-17T18:49:28.613Z,0.77
2023-02-17T18:51:56.279Z,0.43
2023-02-17T18:54:23.943Z,0.68
2023-02-17T18:56:51.933Z,0.60
2023-02-17T18:59:19.709Z,0.40
2023-02-17T19:01:47.983Z,0.43
2023-02-17T19:04:16.709Z,0.50
2023-02-17T19:06:46.014Z,0.50
2023-02-17T19:09:13.642Z,0.40
2023-02-17T19:11:41.194Z,0.40
2023-02-17T19:14:09.138Z,0.50
2023-02-17T19:16:37.058Z,0.60
2023-02-17T19:19:04.871Z,0.65
2023-02-17T19:21:36.184Z,0.40
2023-02-17T19:24:04.033Z,0.50
2023-02-17T19:26:32.242Z,0.40
2023-02-17T19:29:01.111Z,0.50
2023-02-17T19:31:29.305Z,1.15
2023-02-17T19:33:58.051Z,0.50
2023-02-17T19:36:26.342Z,0.50
2023-02-17T19:38:56.429Z,0.40
2023-02-17T19:41:24.556Z,0.75
2023-02-17T19:43:52.307Z,0.43
2023-02-17T19:46:22.115Z,0.50
2023-02-17T19:48:50.694Z,0.40
2023-02-17T19:51:19.042Z,0.60
2023-02-17T19:53:46.768Z,0.50
2023-02-17T19:56:34.457Z,0.30
2023-02-17T19:59:03.266Z,0.35
2023-02-17T20:01:32.030Z,0.30
2023-02-17T20:04:02.264Z,0.50
2023-02-17T20:06:31.916Z,0.50
2023-02-17T20:09:04.444Z,0.40
2023-02-17T20:11:33.975Z,0.70
2023-02-17T20:14:02.389Z,0.40
2023-02-17T20:16:30.389Z,0.52
2023-02-17T20:18:58.102Z,0.40
2023-02-17T20:21:26.861Z,0.40
2023-02-17T20:23:55.585Z,0.40
2023-02-17T20:26:26.258Z,0.40
2023-02-17T20:28:55.788Z,0.43
2023-02-17T20:31:25.405Z,0.47
2023-02-17T20:33:53.131Z,0.77
2023-02-17T20:36:23.263Z,0.40
2023-02-17T20:38:52.153Z,0.40
2023-02-17T20:41:21.617Z,0.50
2023-02-17T20:43:52.498Z,0.40
2023-02-17T20:46:25.376Z,0.40
2023-02-17T20:48:53.541Z,0.63
2023-02-17T20:51:21.625Z,0.50
2023-02-17T20:53:49.687Z,0.40
2023-02-17T20:56:23.752Z,0.40
2023-02-17T20:58:54.129Z,1.05
2023-02-17T21:01:21.918Z,0.40
2023-02-17T21:03:49.677Z,0.38
2023-02-17T21:06:26.446Z,0.40
2023-02-17T21:08:56.697Z,0.40
2023-02-17T21:11:24.524Z,0.40
2023-02-17T21:13:53.421Z,0.50
2023-02-17T21:16:26.329Z,0.40
2023-02-17T21:18:54.714Z,0.40
2023-02-17T21:21:22.973Z,0.50
2023-02-17T21:23:51.617Z,0.40
2023-02-17T21:26:19.919Z,0.63
2023-02-17T21:28:48.792Z,0.43
2023-02-17T21:31:17.530Z,0.60
2023-02-17T21:33:47.739Z,0.40
2023-02-17T21:36:16.598Z,0.55
2023-02-17T21:38:44.741Z,0.47
2023-02-17T21:41:20.520Z,1.65
2023-02-17T21:44:06.730Z,0.50
2023-02-17T21:46:34.869Z,0.50
2023-02-17T21:49:03.109Z,0.43
2023-02-17T21:51:31.484Z,1.00
2023-02-17T21:54:00.573Z,0.40
2023-02-17T21:56:30.635Z,0.40
2023-02-17T21:58:58.449Z,0.88
2023-02-17T22:01:27.931Z,0.57
2023-02-17T22:03:56.265Z,0.40
2023-02-17T22:06:25.848Z,0.43
2023-02-17T22:08:54.237Z,0.73
2023-02-17T22:11:24.103Z,0.43
2023-02-17T22:13:56.549Z,0.40
2023-02-17T22:16:24.293Z,0.40
2023-02-17T22:18:52.636Z,0.40
2023-02-17T22:21:20.215Z,0.40
2023-02-17T22:23:48.578Z,0.55
2023-02-17T22:26:21.279Z,0.52
2023-02-17T22:28:50.106Z,0.70
2023-02-17T22:31:19.297Z,0.70
2023-02-17T22:33:47.448Z,0.52
2023-02-17T22:36:16.636Z,0.73
2023-02-17T22:38:44.401Z,0.63
2023-02-17T22:41:14.308Z,0.60
2023-02-17T22:43:43.397Z,0.60
2023-02-17T22:46:11.418Z,0.40
2023-02-17T22:48:40.571Z,0.50
2023-02-17T22:51:12.162Z,0.50
2023-02-17T22:53:42.448Z,0.50
2023-02-17T22:56:10.361Z,0.40
2023-02-17T22:58:39.651Z,0.77
2023-02-17T23:01:07.205Z,0.50
2023-02-17T23:03:36.147Z,0.40
2023-02-17T23:06:09.521Z,0.65
2023-02-17T23:08:40.737Z,0.40
2023-02-17T23:11:09.963Z,0.40
2023-02-17T23:13:38.340Z,0.50
2023-02-17T23:16:06.936Z,0.95
2023-02-17T23:18:37.030Z,0.88
2023-02-17T23:21:10.252Z,0.50
2023-02-17T23:23:38.116Z,0.40
2023-02-17T23:26:06.757Z,0.50
2023-02-17T23:28:37.245Z,0.60
2023-02-17T23:31:05.019Z,1.15
2023-02-17T23:33:33.332Z,0.60
2023-02-17T23:36:03.993Z,0.50
2023-02-17T23:38:32.712Z,0.45
2023-02-17T23:41:02.218Z,1.00
2023-02-17T23:43:31.018Z,0.80
2023-02-17T23:45:59.733Z,0.60
2023-02-17T23:48:27.278Z,0.85
2023-02-17T23:50:58.982Z,1.08
2023-02-17T23:53:26.734Z,0.50
2023-02-17T23:56:14.605Z,0.50
2023-02-17T23:58:43.221Z,0.50
